Ital Oriente — A8LN2 — position and weather

sailwx.info

Track history (hours):
 
Tides and Currents Weather Stations Pressure Air Temp Water Temp Dewpoint Dewpoint Depression Visibility Wind Speed Wind Dir Waves Ship Positions

Ital Oriente

Last reported at 2017-Nov-15 12:00 UTC. Time now 2017-Nov-18 02:57 UTC.
Position N 04°36' W 003°24'.

Length 227 m; draft 11.2 m.

Type: Cargo ship. MMSI: 636091278.

Wind from 210 at 13 knots

Barometer 1010.4 mb
Air temperature 32.0 ° C
Visibility: greater than 5.4 NM
Dewpoint 23.8 ° C
Water temperature 29.0 ° C

Date/timePositionNaut miles runAvg speedWind from/ knotsBaromVisibWave heightAir tempDewpointWater temp
2017-Nov-15 12:00N 04°36' W 003°24'9115.1 210 / 131010.4 5.4 32.023.829.0
2017-Nov-15 06:00N 04°24' W 001°54'10615.3 190 / 71009.0 2.2 26.025.129.0
2017-Nov-14 23:02N 05°08' W 000°17'116.2
2017-Nov-14 23:00N 05°09' W 000°17'816.2
2017-Nov-14 22:30N 05°13' W 000°10'816.3
2017-Nov-14 22:00N 05°17' W 000°03'816.0
2017-Nov-14 21:31N 05°24' E 000°01'816.8
2017-Nov-14 21:01N 05°32' E 000°03'611.4
2017-Nov-14 20:31N 05°38' E 000°01'1 1.2
2017-Nov-14 19:58N 05°38' E 000°01'0 0.0
2017-Nov-14 19:28N 05°38' E 000°01'0 0.0
2017-Nov-14 18:58N 05°38' E 000°01'0 0.0
2017-Nov-14 18:28N 05°38' E 000°01'0 0.0
2017-Nov-14 17:58N 05°38' E 000°01'0 0.0
2017-Nov-14 17:28N 05°38' E 000°01'0 0.0
2017-Nov-14 16:58N 05°38' E 000°01'0 0.0
2017-Nov-14 16:28N 05°38' E 000°01'0 0.0
2017-Nov-14 15:58N 05°38' E 000°01'0 0.0
2017-Nov-14 15:28N 05°38' E 000°01'0 0.0
2017-Nov-14 14:58N 05°38' E 000°01'0 0.0
2017-Nov-14 14:28N 05°38' E 000°01'0 0.0
2017-Nov-14 13:58N 05°38' E 000°01'0 0.0
2017-Nov-14 13:28N 05°38' E 000°01'0 0.0
2017-Nov-14 12:58N 05°38' E 000°01'0 0.0
2017-Nov-14 12:28N 05°38' E 000°01'0 0.0
2017-Nov-14 11:58N 05°38' E 000°01'0 0.0
2017-Nov-14 11:28N 05°38' E 000°01'0 0.0
2017-Nov-14 10:58N 05°38' E 000°01'0 0.0
2017-Nov-14 10:28N 05°38' E 000°01'0 0.0
2017-Nov-14 09:58N 05°38' E 000°01'0 0.0
2017-Nov-14 09:28N 05°38' E 000°01'0 0.0
2017-Nov-14 08:58N 05°38' E 000°01'0 0.0
2017-Nov-14 08:28N 05°38' E 000°01'0 0.0
2017-Nov-14 07:58N 05°38' E 000°01'0 0.0
2017-Nov-14 07:28N 05°38' E 000°01'0 0.0
2017-Nov-14 06:58N 05°38' E 000°01'0 0.0
2017-Nov-14 06:28N 05°38' E 000°01'0 0.0
2017-Nov-14 05:58N 05°38' E 000°01'0 0.0
2017-Nov-14 05:28N 05°38' E 000°01'0 0.0
2017-Nov-14 04:58N 05°38' E 000°01'0 0.0
2017-Nov-14 04:28N 05°38' E 000°01'0 0.0
2017-Nov-14 03:58N 05°38' E 000°01'0 0.0
2017-Nov-14 03:28N 05°38' E 000°01'0 0.0
2017-Nov-14 02:58N 05°38' E 000°01'0 0.0
2017-Nov-14 02:28N 05°38' E 000°01'0 0.0
2017-Nov-14 01:58N 05°38' E 000°01'0 0.0
2017-Nov-14 01:28N 05°38' E 000°01'0 0.0
2017-Nov-14 00:58N 05°38' E 000°01'0 0.0
2017-Nov-14 00:28N 05°38' E 000°01'0 0.0
2017-Nov-13 23:58N 05°38' E 000°01'0 0.0
2017-Nov-13 23:28N 05°38' E 000°01'0 0.1
2017-Nov-13 23:00N 05°38' E 000°01'2 4.9
2017-Nov-13 22:30N 05°38' E 000°03'0 0.8
2017-Nov-13 22:00N 05°37' E 000°03'215 7.7
2017-Nov-12 18:00N 04°06' W 003°12'11419.0 140 / 151008.0 5.4 27.021.329.0
2017-Nov-12 12:00N 04°00' W 005°06'10818.0 150 / 161010.410.8 30.027.329.0
2017-Nov-12 06:00N 04°00' W 006°54'31717.6 140 / 141010.0 5.4 28.024.228.0
2017-Nov-11 12:00N 06°00' W 011°48'11018.3 130 / 141011.3 5.4 29.026.229.0
2017-Nov-11 06:00N 06°54' W 013°24'41117.1 150 / 191010.0 5.4 26.021.729.0
2017-Nov-10 06:00N 12°30' W 017°24'   330 / 91011.0 5.4 28.023.429.0
Track history (hours):
 
Tides and Currents Weather Stations Pressure Air Temp Water Temp Dewpoint Dewpoint Depression Visibility Wind Speed Wind Dir Waves Ship Positions

Ital Oriente

Last reported at 2017-Nov-15 12:00 UTC. Time now 2017-Nov-18 02:57 UTC.
Position N 04°36' W 003°24'.

Length 227 m; draft 11.2 m.

Type: Cargo ship. MMSI: 636091278.

Wind from 210 at 13 knots

Barometer 1010.4 mb
Air temperature 32.0 ° C
Visibility: greater than 5.4 NM
Dewpoint 23.8 ° C
Water temperature 29.0 ° C

Date/timePositionNaut miles runAvg speedWind from/ knotsBaromVisibWave heightAir tempDewpointWater temp
2017-Nov-15 12:00N 04°36' W 003°24'9115.1 210 / 131010.4 5.4 32.023.829.0
2017-Nov-15 06:00N 04°24' W 001°54'10615.3 190 / 71009.0 2.2 26.025.129.0
2017-Nov-14 23:02N 05°08' W 000°17'116.2
2017-Nov-14 23:00N 05°09' W 000°17'816.2
2017-Nov-14 22:30N 05°13' W 000°10'816.3
2017-Nov-14 22:00N 05°17' W 000°03'816.0
2017-Nov-14 21:31N 05°24' E 000°01'816.8
2017-Nov-14 21:01N 05°32' E 000°03'611.4
2017-Nov-14 20:31N 05°38' E 000°01'1 1.2
2017-Nov-14 19:58N 05°38' E 000°01'0 0.0
2017-Nov-14 19:28N 05°38' E 000°01'0 0.0
2017-Nov-14 18:58N 05°38' E 000°01'0 0.0
2017-Nov-14 18:28N 05°38' E 000°01'0 0.0
2017-Nov-14 17:58N 05°38' E 000°01'0 0.0
2017-Nov-14 17:28N 05°38' E 000°01'0 0.0
2017-Nov-14 16:58N 05°38' E 000°01'0 0.0
2017-Nov-14 16:28N 05°38' E 000°01'0 0.0
2017-Nov-14 15:58N 05°38' E 000°01'0 0.0
2017-Nov-14 15:28N 05°38' E 000°01'0 0.0
2017-Nov-14 14:58N 05°38' E 000°01'0 0.0
2017-Nov-14 14:28N 05°38' E 000°01'0 0.0
2017-Nov-14 13:58N 05°38' E 000°01'0 0.0
2017-Nov-14 13:28N 05°38' E 000°01'0 0.0
2017-Nov-14 12:58N 05°38' E 000°01'0 0.0
2017-Nov-14 12:28N 05°38' E 000°01'0 0.0
2017-Nov-14 11:58N 05°38' E 000°01'0 0.0
2017-Nov-14 11:28N 05°38' E 000°01'0 0.0
2017-Nov-14 10:58N 05°38' E 000°01'0 0.0
2017-Nov-14 10:28N 05°38' E 000°01'0 0.0
2017-Nov-14 09:58N 05°38' E 000°01'0 0.0
2017-Nov-14 09:28N 05°38' E 000°01'0 0.0
2017-Nov-14 08:58N 05°38' E 000°01'0 0.0
2017-Nov-14 08:28N 05°38' E 000°01'0 0.0
2017-Nov-14 07:58N 05°38' E 000°01'0 0.0
2017-Nov-14 07:28N 05°38' E 000°01'0 0.0
2017-Nov-14 06:58N 05°38' E 000°01'0 0.0
2017-Nov-14 06:28N 05°38' E 000°01'0 0.0
2017-Nov-14 05:58N 05°38' E 000°01'0 0.0
2017-Nov-14 05:28N 05°38' E 000°01'0 0.0
2017-Nov-14 04:58N 05°38' E 000°01'0 0.0
2017-Nov-14 04:28N 05°38' E 000°01'0 0.0
2017-Nov-14 03:58N 05°38' E 000°01'0 0.0
2017-Nov-14 03:28N 05°38' E 000°01'0 0.0
2017-Nov-14 02:58N 05°38' E 000°01'0 0.0
2017-Nov-14 02:28N 05°38' E 000°01'0 0.0
2017-Nov-14 01:58N 05°38' E 000°01'0 0.0
2017-Nov-14 01:28N 05°38' E 000°01'0 0.0
2017-Nov-14 00:58N 05°38' E 000°01'0 0.0
2017-Nov-14 00:28N 05°38' E 000°01'0 0.0
2017-Nov-13 23:58N 05°38' E 000°01'0 0.0
2017-Nov-13 23:28N 05°38' E 000°01'0 0.1
2017-Nov-13 23:00N 05°38' E 000°01'2 4.9
2017-Nov-13 22:30N 05°38' E 000°03'0 0.8
2017-Nov-13 22:00N 05°37' E 000°03'215 7.7
2017-Nov-12 18:00N 04°06' W 003°12'11419.0 140 / 151008.0 5.4 27.021.329.0
2017-Nov-12 12:00N 04°00' W 005°06'10818.0 150 / 161010.410.8 30.027.329.0
2017-Nov-12 06:00N 04°00' W 006°54'31717.6 140 / 141010.0 5.4 28.024.228.0
2017-Nov-11 12:00N 06°00' W 011°48'11018.3 130 / 141011.3 5.4 29.026.229.0
2017-Nov-11 06:00N 06°54' W 013°24'41117.1 150 / 191010.0 5.4 26.021.729.0
2017-Nov-10 06:00N 12°30' W 017°24'   330 / 91011.0 5.4 28.023.429.0

Dump ship's entire track history